createdAt,value
2023-01-05T00:01:13.807Z,13.68
2023-01-05T00:03:41.768Z,14.30
2023-01-05T00:06:15.344Z,15.00
2023-01-05T00:08:44.038Z,14.20
2023-01-05T00:11:34.022Z,15.03
2023-01-05T00:14:21.239Z,14.23
2023-01-05T00:17:07.697Z,15.25
2023-01-05T00:19:54.469Z,15.32
2023-01-05T00:22:31.320Z,15.38
2023-01-05T00:25:09.323Z,17.48
2023-01-05T00:30:00.976Z,19.35
2023-01-05T00:32:29.005Z,18.55
2023-01-05T00:34:58.432Z,17.62
2023-01-05T00:37:32.512Z,17.27
2023-01-05T00:40:00.191Z,19.30
2023-01-05T00:42:27.920Z,18.17
2023-01-05T00:44:55.593Z,18.27
2023-01-05T00:47:23.383Z,19.90
2023-01-05T00:49:51.073Z,20.05
2023-01-05T00:52:18.655Z,20.80
2023-01-05T00:54:46.185Z,19.90
2023-01-05T00:57:14.560Z,19.65
2023-01-05T00:59:42.446Z,19.17
2023-01-05T01:02:10.361Z,20.43
2023-01-05T01:04:39.117Z,19.85
2023-01-05T01:07:07.106Z,20.50
2023-01-05T01:09:35.117Z,19.82
2023-01-05T01:12:03.538Z,18.17
2023-01-05T01:14:31.398Z,18.92
2023-01-05T01:16:59.187Z,19.17
2023-01-05T01:19:27.963Z,19.07
2023-01-05T01:21:55.720Z,18.45
2023-01-05T01:24:27.205Z,19.17
2023-01-05T01:26:55.653Z,19.05
2023-01-05T01:29:24.241Z,19.32
2023-01-05T01:31:53.884Z,18.02
2023-01-05T01:34:22.727Z,18.30
2023-01-05T01:36:50.535Z,16.80
2023-01-05T01:39:19.956Z,17.40
2023-01-05T01:41:49.475Z,18.05
2023-01-05T01:44:50.877Z,18.02
2023-01-05T01:47:25.777Z,21.82
2023-01-05T01:49:55.488Z,22.55
2023-01-05T01:52:25.321Z,25.85
2023-01-05T01:54:53.580Z,20.65
2023-01-05T01:57:22.461Z,20.23
2023-01-05T01:59:50.766Z,19.62
2023-01-05T02:02:20.781Z,20.52
2023-01-05T02:04:49.764Z,20.43
2023-01-05T02:07:17.478Z,23.47
2023-01-05T02:09:46.404Z,23.47
2023-01-05T02:12:52.813Z,21.50
2023-01-05T02:15:41.120Z,23.12
2023-01-05T02:18:35.907Z,23.73
2023-01-05T02:21:21.353Z,23.38
2023-01-05T02:24:08.005Z,22.73
2023-01-05T02:26:45.403Z,23.80
2023-01-05T02:29:50.518Z,23.65
2023-01-05T02:32:22.523Z,22.40
2023-01-05T02:35:03.898Z,23.98
2023-01-05T02:37:48.472Z,23.55
2023-01-05T02:40:21.482Z,23.32
2023-01-05T02:42:52.916Z,21.55
2023-01-05T02:45:22.482Z,21.80
2023-01-05T02:47:51.529Z,21.40
2023-01-05T02:50:30.765Z,20.70
2023-01-05T02:53:11.505Z,33.88
2023-01-05T02:55:52.912Z,25.30
2023-01-05T02:58:30.631Z,22.20
2023-01-05T03:01:17.723Z,18.92
2023-01-05T03:04:04.237Z,17.02
2023-01-05T03:06:43.311Z,16.95
2023-01-05T03:09:26.936Z,17.45
2023-01-05T03:12:50.407Z,16.07
2023-01-05T03:15:34.275Z,14.95
2023-01-05T03:18:16.729Z,15.72
2023-01-05T03:20:51.219Z,16.57
2023-01-05T03:23:47.173Z,14.83
2023-01-05T03:26:40.637Z,17.82
2023-01-05T03:29:39.042Z,17.15
2023-01-05T03:32:42.031Z,14.85
2023-01-05T03:35:33.655Z,14.00
2023-01-05T03:38:28.722Z,12.03
2023-01-05T03:41:00.488Z,12.35
2023-01-05T03:43:29.104Z,13.70
2023-01-05T03:45:57.823Z,10.82
2023-01-05T03:48:28.870Z,22.52
2023-01-05T03:50:56.905Z,22.27
2023-01-05T03:53:25.420Z,17.37
2023-01-05T03:55:53.927Z,17.87
2023-01-05T03:58:22.137Z,17.45
2023-01-05T04:00:50.207Z,16.62
2023-01-05T04:03:18.591Z,15.75
2023-01-05T04:05:46.715Z,16.25
2023-01-05T04:08:16.443Z,14.63
2023-01-05T04:10:44.870Z,17.37
2023-01-05T04:13:13.422Z,20.88
2023-01-05T04:15:42.831Z,18.17
2023-01-05T04:18:10.774Z,16.62
2023-01-05T04:20:38.956Z,16.70
2023-01-05T04:23:07.258Z,16.00
2023-01-05T04:25:35.014Z,14.65
2023-01-05T04:28:04.827Z,17.60
2023-01-05T04:30:33.776Z,14.83
2023-01-05T04:33:01.443Z,18.77
2023-01-05T04:35:29.584Z,29.77
2023-01-05T04:37:57.344Z,23.85
2023-01-05T04:40:24.895Z,21.02
2023-01-05T04:42:53.643Z,14.65
2023-01-05T04:45:21.638Z,13.70
2023-01-05T04:47:51.966Z,12.40
2023-01-05T04:50:21.159Z,11.33
2023-01-05T04:52:49.233Z,9.98
2023-01-05T04:55:17.909Z,8.65
2023-01-05T04:57:45.690Z,7.60
2023-01-05T05:00:14.342Z,8.08
2023-01-05T05:02:43.864Z,9.00
2023-01-05T05:05:13.779Z,9.15
2023-01-05T05:07:41.474Z,8.98
2023-01-05T05:10:10.143Z,14.68
2023-01-05T05:12:39.359Z,14.45
2023-01-05T05:15:09.067Z,11.73
2023-01-05T05:17:36.698Z,11.70
2023-01-05T05:20:06.072Z,8.63
2023-01-05T05:22:33.911Z,9.03
2023-01-05T05:25:01.983Z,14.90
2023-01-05T05:27:30.377Z,14.40
2023-01-05T05:29:58.089Z,15.18
2023-01-05T05:32:25.833Z,20.52
2023-01-05T05:34:53.563Z,20.08
2023-01-05T05:37:21.138Z,20.32
2023-01-05T05:39:48.879Z,20.15
2023-01-05T05:42:16.415Z,18.40
2023-01-05T05:44:44.145Z,20.12
2023-01-05T05:47:11.726Z,17.17
2023-01-05T05:49:39.706Z,16.73
2023-01-05T05:52:07.525Z,17.62
2023-01-05T05:54:35.297Z,15.70
2023-01-05T05:57:02.882Z,13.98
2023-01-05T05:59:30.369Z,13.62
2023-01-05T06:01:58.382Z,16.77
2023-01-05T06:04:26.348Z,19.57
2023-01-05T06:06:54.185Z,22.52
2023-01-05T06:09:21.775Z,19.62
2023-01-05T06:11:49.565Z,13.90
2023-01-05T06:14:17.165Z,11.53
2023-01-05T06:16:45.306Z,11.90
2023-01-05T06:19:12.923Z,14.03
2023-01-05T06:21:40.541Z,10.70
2023-01-05T06:24:09.281Z,9.73
2023-01-05T06:26:36.712Z,9.55
2023-01-05T06:29:04.221Z,10.13
2023-01-05T06:31:31.832Z,11.38
2023-01-05T06:33:59.307Z,16.67
2023-01-05T06:36:27.074Z,21.60
2023-01-05T06:38:54.842Z,15.35
2023-01-05T06:41:22.387Z,19.75
2023-01-05T06:43:50.028Z,20.05
2023-01-05T06:46:17.409Z,19.05
2023-01-05T06:48:45.077Z,21.30
2023-01-05T06:51:12.733Z,21.97
2023-01-05T06:53:40.440Z,16.30
2023-01-05T06:56:08.104Z,10.45
2023-01-05T06:58:35.867Z,10.30
2023-01-05T07:01:03.813Z,10.95
2023-01-05T07:03:31.718Z,11.38
2023-01-05T07:05:59.391Z,15.08
2023-01-05T07:08:27.395Z,14.07
2023-01-05T07:10:55.247Z,16.40
2023-01-05T07:13:23.190Z,19.70
2023-01-05T07:15:50.785Z,18.82
2023-01-05T07:18:18.261Z,16.52
2023-01-05T07:20:45.807Z,14.55
2023-01-05T07:23:13.451Z,13.10
2023-01-05T07:25:41.089Z,11.15
2023-01-05T07:28:08.932Z,13.45
2023-01-05T07:30:36.578Z,12.98
2023-01-05T07:33:04.770Z,9.45
2023-01-05T07:35:32.654Z,8.50
2023-01-05T07:38:00.101Z,5.33
2023-01-05T07:40:28.108Z,5.40
2023-01-05T07:42:55.549Z,6.95
2023-01-05T07:45:23.391Z,13.40
2023-01-05T07:47:50.916Z,24.63
2023-01-05T07:50:21.442Z,25.80
2023-01-05T07:52:48.921Z,13.43
2023-01-05T07:55:16.845Z,14.33
2023-01-05T07:57:44.423Z,10.78
2023-01-05T08:00:14.462Z,13.90
2023-01-05T08:02:43.310Z,17.87
2023-01-05T08:05:11.189Z,17.10
2023-01-05T08:07:38.747Z,12.10
2023-01-05T08:10:25.761Z,36.68
2023-01-05T08:13:12.250Z,63.68
2023-01-05T08:15:39.755Z,40.00
2023-01-05T08:18:07.321Z,11.22
2023-01-05T08:20:34.793Z,7.15
2023-01-05T08:23:02.898Z,6.05
2023-01-05T08:25:30.346Z,6.75
2023-01-05T08:27:59.444Z,8.68
2023-01-05T08:30:27.169Z,10.75
2023-01-05T08:32:54.679Z,9.08
2023-01-05T08:35:22.482Z,10.35
2023-01-05T08:37:50.482Z,11.00
2023-01-05T08:40:18.122Z,11.25
2023-01-05T08:42:47.502Z,9.45
2023-01-05T08:45:16.084Z,10.50
2023-01-05T08:47:44.493Z,12.30
2023-01-05T08:50:12.545Z,14.28
2023-01-05T08:52:40.674Z,11.97
2023-01-05T08:55:08.791Z,11.55
2023-01-05T08:57:36.338Z,10.45
2023-01-05T09:00:05.768Z,10.95
2023-01-05T09:02:33.549Z,13.93
2023-01-05T09:05:02.499Z,11.10
2023-01-05T09:07:30.134Z,15.25
2023-01-05T09:09:57.740Z,11.40
2023-01-05T09:12:30.921Z,9.90
2023-01-05T09:14:54.852Z,7.25
2023-01-05T09:17:22.693Z,9.13
2023-01-05T09:19:50.150Z,8.83
2023-01-05T09:22:18.510Z,9.88
2023-01-05T09:24:46.601Z,9.60
2023-01-05T09:27:15.232Z,8.48
2023-01-05T09:29:42.675Z,9.48
2023-01-05T09:32:11.065Z,8.50
2023-01-05T09:34:38.499Z,7.75
2023-01-05T09:37:06.044Z,9.53
2023-01-05T09:39:33.764Z,8.85
2023-01-05T09:42:05.404Z,9.30
2023-01-05T09:44:44.255Z,8.78
2023-01-05T09:47:40.553Z,6.58
2023-01-05T09:50:18.531Z,8.48
2023-01-05T09:52:47.137Z,13.18
2023-01-05T09:55:19.138Z,13.03
2023-01-05T09:57:57.682Z,12.63
2023-01-05T10:00:26.645Z,10.63
2023-01-05T10:03:01.434Z,10.00
2023-01-05T10:05:32.312Z,11.95
2023-01-05T10:08:07.737Z,13.20
2023-01-05T10:11:26.405Z,16.30
2023-01-05T10:14:16.236Z,14.60
2023-01-05T10:16:46.326Z,9.80
2023-01-05T10:19:16.928Z,7.35
2023-01-05T10:22:02.188Z,6.58
2023-01-05T10:24:40.734Z,8.75
2023-01-05T10:27:28.721Z,15.10
2023-01-05T10:30:04.751Z,21.65
2023-01-05T10:33:26.855Z,20.70
2023-01-05T10:36:00.662Z,9.80
2023-01-05T10:38:25.469Z,22.60
2023-01-05T10:41:07.881Z,12.18
2023-01-05T10:44:04.960Z,17.00
2023-01-05T10:46:40.681Z,16.57
2023-01-05T10:49:02.210Z,17.15
2023-01-05T10:51:33.488Z,13.95
2023-01-05T10:54:03.524Z,12.58
2023-01-05T10:56:32.631Z,8.83
2023-01-05T10:59:09.877Z,8.33
2023-01-05T11:01:42.142Z,14.75
2023-01-05T11:04:34.008Z,15.48
2023-01-05T11:06:52.363Z,15.25
2023-01-05T11:09:23.718Z,17.50
2023-01-05T11:11:58.889Z,17.00
2023-01-05T11:14:29.438Z,18.40
2023-01-05T11:17:04.310Z,19.65
2023-01-05T11:19:40.182Z,14.50
2023-01-05T11:22:36.537Z,12.65
2023-01-05T11:25:28.945Z,11.73
2023-01-05T11:28:15.407Z,10.95
2023-01-05T11:30:59.459Z,10.28
2023-01-05T11:33:29.652Z,10.28
2023-01-05T11:35:58.612Z,10.15
2023-01-05T11:38:31.372Z,10.68
2023-01-05T11:41:00.519Z,10.43
2023-01-05T11:43:31.812Z,11.12
2023-01-05T11:46:04.651Z,10.58
2023-01-05T11:48:35.487Z,11.00
2023-01-05T11:51:03.421Z,11.63
2023-01-05T11:53:38.526Z,14.95
2023-01-05T11:56:20.891Z,12.90
2023-01-05T11:58:54.641Z,12.28
2023-01-05T12:01:52.721Z,16.42
2023-01-05T12:04:55.571Z,16.97
2023-01-05T12:07:28.754Z,14.70
2023-01-05T12:10:21.739Z,14.03
2023-01-05T12:13:23.333Z,24.72
2023-01-05T12:16:31.125Z,15.15
2023-01-05T12:19:30.113Z,16.52
2023-01-05T12:22:19.957Z,16.82
2023-01-05T12:24:52.983Z,15.08
2023-01-05T12:28:05.056Z,16.65
2023-01-05T12:36:33.678Z,11.78
2023-01-05T12:39:31.573Z,13.18
2023-01-05T12:42:25.312Z,11.43
2023-01-05T12:45:32.380Z,14.35
2023-01-05T12:48:11.486Z,15.55
2023-01-05T12:50:55.971Z,35.48
2023-01-05T12:53:41.102Z,16.97
2023-01-05T12:56:32.419Z,16.05
2023-01-05T12:59:28.237Z,18.55
2023-01-05T13:02:18.522Z,30.82
2023-01-05T13:04:56.208Z,21.55
2023-01-05T13:07:29.255Z,13.20
2023-01-05T13:10:03.363Z,14.68
2023-01-05T13:12:37.196Z,17.90
2023-01-05T13:15:21.407Z,20.52
2023-01-05T13:17:53.603Z,18.12
2023-01-05T13:20:32.609Z,19.57
2023-01-05T13:23:08.537Z,26.23
2023-01-05T13:26:05.657Z,19.50
2023-01-05T13:28:35.098Z,17.27
2023-01-05T13:31:45.425Z,14.58
2023-01-05T13:34:47.163Z,17.27
2023-01-05T13:37:41.056Z,18.82
2023-01-05T13:40:30.463Z,20.70
2023-01-05T13:43:30.317Z,27.17
2023-01-05T13:46:30.265Z,25.72
2023-01-05T13:49:37.056Z,12.58
2023-01-05T13:52:28.437Z,9.60
2023-01-05T13:55:02.469Z,10.55
2023-01-05T13:57:41.305Z,16.87
2023-01-05T14:00:29.699Z,18.45
2023-01-05T14:03:08.738Z,24.18
2023-01-05T14:05:57.646Z,20.50
2023-01-05T14:08:36.136Z,18.00
2023-01-05T14:11:17.671Z,12.18
2023-01-05T14:14:08.081Z,11.48
2023-01-05T14:16:41.825Z,16.93
2023-01-05T14:22:22.786Z,10.55
2023-01-05T14:24:50.461Z,15.15
2023-01-05T14:27:21.525Z,17.75
2023-01-05T14:29:59.582Z,13.85
2023-01-05T14:32:41.933Z,19.75
2023-01-05T14:35:23.591Z,16.52
2023-01-05T14:37:56.693Z,86.10
2023-01-05T14:40:41.746Z,121.77
2023-01-05T14:43:32.012Z,23.80
2023-01-05T14:46:10.573Z,19.92
2023-01-05T14:49:00.793Z,18.30
2023-01-05T14:51:33.128Z,18.42
2023-01-05T14:54:04.279Z,19.05
2023-01-05T14:56:35.348Z,34.50
2023-01-05T14:59:19.441Z,33.35
2023-01-05T15:02:04.409Z,31.17
2023-01-05T15:04:37.203Z,33.92
2023-01-05T15:07:26.200Z,36.35
2023-01-05T15:10:28.335Z,34.10
2023-01-05T15:16:18.326Z,34.67
2023-01-05T15:19:06.279Z,33.35
2023-01-05T15:22:07.957Z,22.87
2023-01-05T15:24:56.110Z,20.82
2023-01-05T15:27:50.040Z,21.85
2023-01-05T15:30:44.273Z,18.00
2023-01-05T15:33:37.308Z,20.32
2023-01-05T15:36:06.583Z,19.20
2023-01-05T15:38:46.578Z,17.55
2023-01-05T15:41:17.868Z,16.12
2023-01-05T15:43:46.776Z,17.92
2023-01-05T15:46:22.247Z,16.67
2023-01-05T15:48:53.233Z,20.23
2023-01-05T15:51:30.744Z,21.75
2023-01-05T15:54:01.743Z,21.97
2023-01-05T15:56:41.291Z,22.95
2023-01-05T15:59:29.055Z,20.52
2023-01-05T16:01:56.668Z,23.47
2023-01-05T16:04:24.933Z,36.08
2023-01-05T16:06:59.967Z,51.73
2023-01-05T16:09:35.050Z,36.42
2023-01-05T16:12:10.947Z,29.92
2023-01-05T16:14:45.288Z,31.00
2023-01-05T16:17:21.559Z,31.75
2023-01-05T16:20:07.414Z,34.03
2023-01-05T16:22:40.739Z,40.67
2023-01-05T16:25:24.580Z,39.63
2023-01-05T16:27:58.587Z,33.67
2023-01-05T16:30:41.721Z,29.42
2023-01-05T16:33:35.487Z,39.08
2023-01-05T16:36:21.940Z,32.60
2023-01-05T16:38:49.807Z,32.08
2023-01-05T16:41:26.070Z,39.83
2023-01-05T16:43:57.865Z,33.00
2023-01-05T16:46:33.197Z,32.15
2023-01-05T16:49:41.153Z,27.75
2023-01-05T16:52:09.037Z,21.10
2023-01-05T16:54:40.196Z,20.57
2023-01-05T16:57:35.485Z,12.37
2023-01-05T17:00:06.649Z,9.95
2023-01-05T17:02:48.509Z,8.75
2023-01-05T17:05:22.465Z,5.70
2023-01-05T17:08:04.489Z,7.27
2023-01-05T17:10:32.456Z,6.35
2023-01-05T17:13:07.631Z,7.22
2023-01-05T17:15:36.439Z,7.17
2023-01-05T17:18:24.133Z,8.55
2023-01-05T17:20:54.573Z,9.20
2023-01-05T17:23:35.712Z,10.95
2023-01-05T17:26:07.356Z,9.68
2023-01-05T17:28:35.058Z,8.93
2023-01-05T17:31:03.529Z,8.65
2023-01-05T17:33:31.189Z,7.70
2023-01-05T17:35:58.763Z,7.75
2023-01-05T17:38:26.205Z,7.05
2023-01-05T17:40:53.789Z,10.10
2023-01-05T17:43:21.317Z,12.80
2023-01-05T17:45:49.129Z,9.48
2023-01-05T17:48:17.038Z,8.83
2023-01-05T17:50:45.550Z,9.70
2023-01-05T17:53:13.046Z,16.55
2023-01-05T17:55:42.506Z,13.38
2023-01-05T17:58:13.910Z,8.73
2023-01-05T18:00:43.933Z,21.50
2023-01-05T18:03:16.927Z,9.73
2023-01-05T18:05:44.788Z,31.77
2023-01-05T18:08:12.533Z,21.25
2023-01-05T18:13:09.607Z,51.15
2023-01-05T18:15:44.048Z,61.83
2023-01-05T18:18:13.096Z,82.00
2023-01-05T18:20:42.048Z,85.10
2023-01-05T18:23:10.417Z,88.75
2023-01-05T18:25:39.086Z,30.20
2023-01-05T18:28:07.383Z,18.27
2023-01-05T18:30:35.466Z,13.35
2023-01-05T18:33:03.311Z,96.28
2023-01-05T18:35:31.154Z,148.35
2023-01-05T18:38:00.645Z,33.02
2023-01-05T18:40:28.934Z,16.65
2023-01-05T18:42:56.505Z,22.67
2023-01-05T18:45:38.478Z,21.45
2023-01-05T18:47:58.119Z,29.20
2023-01-05T18:50:26.110Z,37.45
2023-01-05T18:52:53.977Z,25.70
2023-01-05T18:55:21.898Z,27.60
2023-01-05T18:57:49.539Z,26.10
2023-01-05T19:00:17.660Z,25.20
2023-01-05T19:02:45.107Z,31.93
2023-01-05T19:05:12.869Z,25.10
2023-01-05T19:07:41.304Z,23.02
2023-01-05T19:10:09.452Z,21.62
2023-01-05T19:12:37.891Z,32.73
2023-01-05T19:15:06.410Z,25.70
2023-01-05T19:17:34.370Z,25.97
2023-01-05T19:20:02.178Z,25.37
2023-01-05T19:22:29.881Z,23.00
2023-01-05T19:24:58.388Z,21.73
2023-01-05T19:27:27.596Z,22.07
2023-01-05T19:29:55.110Z,24.35
2023-01-05T19:32:23.662Z,24.77
2023-01-05T19:34:51.379Z,27.77
2023-01-05T19:37:18.875Z,30.60
2023-01-05T19:39:46.541Z,25.30
2023-01-05T19:42:14.259Z,20.68
2023-01-05T19:44:41.642Z,15.88
2023-01-05T19:47:09.199Z,12.07
2023-01-05T19:49:36.709Z,11.57
2023-01-05T19:52:04.676Z,19.27
2023-01-05T19:54:32.289Z,11.10
2023-01-05T19:56:59.865Z,12.03
2023-01-05T19:59:29.391Z,11.75
2023-01-05T20:01:57.216Z,151.25
2023-01-05T20:04:25.073Z,33.23
2023-01-05T20:06:53.116Z,19.67
2023-01-05T20:09:21.601Z,26.95
2023-01-05T20:11:54.764Z,21.37
2023-01-05T20:14:32.301Z,12.30
2023-01-05T20:17:06.184Z,9.88
2023-01-05T20:19:35.456Z,11.20
2023-01-05T20:22:07.147Z,13.68
2023-01-05T20:24:36.799Z,16.85
2023-01-05T20:27:09.388Z,15.55
2023-01-05T20:29:37.434Z,14.55
2023-01-05T20:32:15.770Z,10.70
2023-01-05T20:34:45.738Z,8.08
2023-01-05T20:37:13.289Z,6.65
2023-01-05T20:39:41.738Z,5.70
2023-01-05T20:42:11.011Z,5.72
2023-01-05T20:44:42.705Z,5.80
2023-01-05T20:47:11.377Z,5.50
2023-01-05T20:49:40.126Z,5.55
2023-01-05T20:52:10.162Z,8.00
2023-01-05T20:54:39.652Z,6.80
2023-01-05T20:57:07.953Z,8.05
2023-01-05T20:59:41.103Z,6.90
2023-01-05T21:02:22.442Z,8.35
2023-01-05T21:04:41.296Z,6.78
2023-01-05T21:07:08.835Z,5.90
2023-01-05T21:09:36.496Z,5.47
2023-01-05T21:12:05.198Z,5.20
2023-01-05T21:14:33.011Z,5.25
2023-01-05T21:17:00.722Z,5.92
2023-01-05T21:19:28.258Z,5.97
2023-01-05T21:21:57.546Z,6.10
2023-01-05T21:24:26.341Z,5.37
2023-01-05T21:26:54.623Z,6.12
2023-01-05T21:29:25.326Z,5.37
2023-01-05T21:31:56.696Z,5.55
2023-01-05T21:34:25.335Z,5.10
2023-01-05T21:36:52.991Z,5.72
2023-01-05T21:39:24.276Z,5.78
2023-01-05T21:42:11.693Z,5.37
2023-01-05T21:44:39.981Z,5.87
2023-01-05T21:47:08.075Z,5.45
2023-01-05T21:49:36.367Z,4.97
2023-01-05T21:52:24.092Z,5.20
2023-01-05T21:55:10.322Z,7.17
2023-01-05T21:57:37.929Z,8.13
2023-01-05T22:00:06.989Z,8.10
2023-01-05T22:02:34.696Z,10.95
2023-01-05T22:05:02.662Z,14.28
2023-01-05T22:07:30.427Z,12.68
2023-01-05T22:09:58.210Z,9.88
2023-01-05T22:12:25.800Z,9.63
2023-01-05T22:14:53.487Z,6.55
2023-01-05T22:17:21.231Z,4.85
2023-01-05T22:19:48.746Z,5.42
2023-01-05T22:22:16.368Z,4.90
2023-01-05T22:24:44.176Z,4.70
2023-01-05T22:27:11.804Z,4.12
2023-01-05T22:29:40.296Z,4.12
2023-01-05T22:32:07.995Z,4.10
2023-01-05T22:34:36.735Z,4.03
2023-01-05T22:37:04.422Z,3.62
2023-01-05T22:39:32.033Z,3.75
2023-01-05T22:41:59.774Z,4.42
2023-01-05T22:44:27.287Z,3.65
2023-01-05T22:46:56.923Z,4.17
2023-01-05T22:49:24.458Z,3.87
2023-01-05T22:51:51.932Z,4.28
2023-01-05T22:54:19.844Z,4.37
2023-01-05T22:56:47.388Z,4.35
2023-01-05T22:59:14.998Z,4.42
2023-01-05T23:01:44.459Z,4.20
2023-01-05T23:04:12.553Z,4.55
2023-01-05T23:06:40.779Z,4.75
2023-01-05T23:09:13.458Z,4.92
2023-01-05T23:11:44.709Z,5.67
2023-01-05T23:14:14.365Z,5.35
2023-01-05T23:16:42.126Z,5.45
2023-01-05T23:19:12.087Z,4.55
2023-01-05T23:21:39.877Z,5.42
2023-01-05T23:24:08.426Z,4.90
2023-01-05T23:26:36.118Z,4.25
2023-01-05T23:29:04.164Z,4.22
2023-01-05T23:31:31.631Z,3.72
2023-01-05T23:33:59.443Z,3.45
2023-01-05T23:36:27.180Z,3.62
2023-01-05T23:38:55.899Z,3.37
2023-01-05T23:41:23.470Z,3.60
2023-01-05T23:43:51.071Z,2.72
2023-01-05T23:46:21.110Z,2.98
2023-01-05T23:48:50.701Z,3.40
2023-01-05T23:51:18.670Z,2.85
2023-01-05T23:53:49.418Z,3.45
2023-01-05T23:56:28.325Z,3.17
2023-01-05T23:59:00.086Z,2.90
